sensor_id;sensor_type;location;lat;lon;timestamp;P1;durP1;ratioP1;P2;durP2;ratioP2
22205;SDS011;11272;50.104;8.754;2023-02-04T00:01:49;9.13;;;2.70;;
22205;SDS011;11272;50.104;8.754;2023-02-04T00:04:14;17.93;;;3.23;;
22205;SDS011;11272;50.104;8.754;2023-02-04T00:06:40;8.70;;;2.53;;
22205;SDS011;11272;50.104;8.754;2023-02-04T00:09:06;8.93;;;3.17;;
22205;SDS011;11272;50.104;8.754;2023-02-04T00:11:32;11.50;;;2.30;;
22205;SDS011;11272;50.104;8.754;2023-02-04T00:13:57;13.77;;;2.83;;
22205;SDS011;11272;50.104;8.754;2023-02-04T00:16:23;12.10;;;2.83;;
22205;SDS011;11272;50.104;8.754;2023-02-04T00:18:48;13.97;;;2.87;;
22205;SDS011;11272;50.104;8.754;2023-02-04T00:21:14;16.03;;;2.77;;
22205;SDS011;11272;50.104;8.754;2023-02-04T00:23:39;9.77;;;2.40;;
22205;SDS011;11272;50.104;8.754;2023-02-04T00:26:05;11.20;;;3.10;;
22205;SDS011;11272;50.104;8.754;2023-02-04T00:28:31;12.23;;;2.70;;
22205;SDS011;11272;50.104;8.754;2023-02-04T00:30:56;12.50;;;3.50;;
22205;SDS011;11272;50.104;8.754;2023-02-04T00:33:22;10.63;;;2.87;;
22205;SDS011;11272;50.104;8.754;2023-02-04T00:35:47;11.33;;;2.90;;
22205;SDS011;11272;50.104;8.754;2023-02-04T00:38:13;16.90;;;3.30;;
22205;SDS011;11272;50.104;8.754;2023-02-04T00:40:39;14.33;;;2.70;;
22205;SDS011;11272;50.104;8.754;2023-02-04T00:43:04;8.20;;;2.50;;
22205;SDS011;11272;50.104;8.754;2023-02-04T00:45:30;11.33;;;3.03;;
22205;SDS011;11272;50.104;8.754;2023-02-04T00:47:55;8.17;;;2.70;;
22205;SDS011;11272;50.104;8.754;2023-02-04T00:50:21;10.20;;;3.53;;
22205;SDS011;11272;50.104;8.754;2023-02-04T00:52:47;11.63;;;2.80;;
22205;SDS011;11272;50.104;8.754;2023-02-04T00:55:13;10.70;;;2.83;;
22205;SDS011;11272;50.104;8.754;2023-02-04T00:57:42;12.37;;;2.60;;
22205;SDS011;11272;50.104;8.754;2023-02-04T01:00:08;12.30;;;2.53;;
22205;SDS011;11272;50.104;8.754;2023-02-04T01:02:34;8.70;;;2.10;;
22205;SDS011;11272;50.104;8.754;2023-02-04T01:05:00;12.63;;;3.07;;
22205;SDS011;11272;50.104;8.754;2023-02-04T01:07:25;7.57;;;2.40;;
22205;SDS011;11272;50.104;8.754;2023-02-04T01:09:51;9.97;;;2.70;;
22205;SDS011;11272;50.104;8.754;2023-02-04T01:12:17;12.03;;;2.63;;
22205;SDS011;11272;50.104;8.754;2023-02-04T01:14:42;12.67;;;2.90;;
22205;SDS011;11272;50.104;8.754;2023-02-04T01:17:08;7.73;;;2.33;;
22205;SDS011;11272;50.104;8.754;2023-02-04T01:19:34;15.87;;;3.30;;
22205;SDS011;11272;50.104;8.754;2023-02-04T01:21:59;7.97;;;2.30;;
22205;SDS011;11272;50.104;8.754;2023-02-04T01:24:25;7.97;;;2.33;;
22205;SDS011;11272;50.104;8.754;2023-02-04T01:27:09;13.33;;;3.07;;
22205;SDS011;11272;50.104;8.754;2023-02-04T01:29:34;8.83;;;2.13;;
22205;SDS011;11272;50.104;8.754;2023-02-04T01:32:00;10.83;;;2.50;;
22205;SDS011;11272;50.104;8.754;2023-02-04T01:34:25;8.53;;;2.20;;
22205;SDS011;11272;50.104;8.754;2023-02-04T01:36:51;8.00;;;2.60;;
22205;SDS011;11272;50.104;8.754;2023-02-04T01:39:16;9.77;;;2.53;;
22205;SDS011;11272;50.104;8.754;2023-02-04T01:41:42;12.57;;;2.60;;
22205;SDS011;11272;50.104;8.754;2023-02-04T01:44:08;6.07;;;2.27;;
22205;SDS011;11272;50.104;8.754;2023-02-04T01:46:34;9.83;;;2.20;;
22205;SDS011;11272;50.104;8.754;2023-02-04T01:49:02;10.17;;;3.07;;
22205;SDS011;11272;50.104;8.754;2023-02-04T01:51:30;15.10;;;2.90;;
22205;SDS011;11272;50.104;8.754;2023-02-04T01:53:57;10.30;;;2.60;;
22205;SDS011;11272;50.104;8.754;2023-02-04T01:56:24;15.60;;;2.53;;
22205;SDS011;11272;50.104;8.754;2023-02-04T01:58:52;8.23;;;2.40;;
22205;SDS011;11272;50.104;8.754;2023-02-04T02:01:32;11.13;;;2.80;;
22205;SDS011;11272;50.104;8.754;2023-02-04T02:04:11;13.07;;;2.60;;
22205;SDS011;11272;50.104;8.754;2023-02-04T02:06:43;10.93;;;2.10;;
22205;SDS011;11272;50.104;8.754;2023-02-04T02:09:12;12.47;;;2.87;;
22205;SDS011;11272;50.104;8.754;2023-02-04T02:11:39;11.10;;;2.20;;
22205;SDS011;11272;50.104;8.754;2023-02-04T02:14:05;11.20;;;2.57;;
22205;SDS011;11272;50.104;8.754;2023-02-04T02:16:30;12.10;;;2.50;;
22205;SDS011;11272;50.104;8.754;2023-02-04T02:18:56;7.67;;;2.40;;
22205;SDS011;11272;50.104;8.754;2023-02-04T02:21:32;8.00;;;2.30;;
22205;SDS011;11272;50.104;8.754;2023-02-04T02:24:20;10.93;;;2.97;;
22205;SDS011;11272;50.104;8.754;2023-02-04T02:26:52;14.53;;;2.57;;
22205;SDS011;11272;50.104;8.754;2023-02-04T02:29:19;13.33;;;2.40;;
22205;SDS011;11272;50.104;8.754;2023-02-04T02:31:46;18.03;;;2.97;;
22205;SDS011;11272;50.104;8.754;2023-02-04T02:34:11;14.57;;;2.63;;
22205;SDS011;11272;50.104;8.754;2023-02-04T02:36:37;14.53;;;3.00;;
22205;SDS011;11272;50.104;8.754;2023-02-04T02:39:02;15.97;;;2.53;;
22205;SDS011;11272;50.104;8.754;2023-02-04T02:41:28;18.57;;;3.00;;
22205;SDS011;11272;50.104;8.754;2023-02-04T02:43:54;14.17;;;2.80;;
22205;SDS011;11272;50.104;8.754;2023-02-04T02:46:20;13.43;;;2.60;;
22205;SDS011;11272;50.104;8.754;2023-02-04T02:48:45;9.57;;;2.43;;
22205;SDS011;11272;50.104;8.754;2023-02-04T02:51:11;9.73;;;2.67;;
22205;SDS011;11272;50.104;8.754;2023-02-04T02:53:36;11.47;;;2.30;;
22205;SDS011;11272;50.104;8.754;2023-02-04T02:56:02;13.10;;;2.73;;
22205;SDS011;11272;50.104;8.754;2023-02-04T02:58:30;10.93;;;2.40;;
22205;SDS011;11272;50.104;8.754;2023-02-04T03:00:59;9.40;;;2.30;;
22205;SDS011;11272;50.104;8.754;2023-02-04T03:03:27;11.63;;;2.63;;
22205;SDS011;11272;50.104;8.754;2023-02-04T03:06:18;18.87;;;3.17;;
22205;SDS011;11272;50.104;8.754;2023-02-04T03:08:47;15.47;;;3.00;;
22205;SDS011;11272;50.104;8.754;2023-02-04T03:11:17;12.17;;;2.47;;
22205;SDS011;11272;50.104;8.754;2023-02-04T03:13:43;9.43;;;2.37;;
22205;SDS011;11272;50.104;8.754;2023-02-04T03:16:09;16.47;;;2.73;;
22205;SDS011;11272;50.104;8.754;2023-02-04T03:18:36;11.67;;;2.07;;
22205;SDS011;11272;50.104;8.754;2023-02-04T03:21:03;11.07;;;2.50;;
22205;SDS011;11272;50.104;8.754;2023-02-04T03:23:31;17.73;;;2.37;;
22205;SDS011;11272;50.104;8.754;2023-02-04T03:25:58;7.97;;;2.60;;
22205;SDS011;11272;50.104;8.754;2023-02-04T03:28:24;8.47;;;2.40;;
22205;SDS011;11272;50.104;8.754;2023-02-04T03:30:49;17.73;;;2.67;;
22205;SDS011;11272;50.104;8.754;2023-02-04T03:33:23;17.03;;;2.47;;
22205;SDS011;11272;50.104;8.754;2023-02-04T03:35:52;14.97;;;2.60;;
22205;SDS011;11272;50.104;8.754;2023-02-04T03:38:17;13.50;;;2.67;;
22205;SDS011;11272;50.104;8.754;2023-02-04T03:40:43;12.10;;;2.40;;
22205;SDS011;11272;50.104;8.754;2023-02-04T03:43:09;10.30;;;2.60;;
22205;SDS011;11272;50.104;8.754;2023-02-04T03:45:35;14.33;;;2.47;;
22205;SDS011;11272;50.104;8.754;2023-02-04T03:48:00;15.80;;;2.73;;
22205;SDS011;11272;50.104;8.754;2023-02-04T03:50:26;19.83;;;2.73;;
22205;SDS011;11272;50.104;8.754;2023-02-04T03:52:51;10.93;;;2.50;;
22205;SDS011;11272;50.104;8.754;2023-02-04T03:55:18;15.70;;;2.60;;
22205;SDS011;11272;50.104;8.754;2023-02-04T03:57:44;19.50;;;2.83;;
22205;SDS011;11272;50.104;8.754;2023-02-04T04:00:11;15.80;;;2.30;;
22205;SDS011;11272;50.104;8.754;2023-02-04T04:02:38;13.97;;;2.43;;
22205;SDS011;11272;50.104;8.754;2023-02-04T04:05:04;10.10;;;2.37;;
22205;SDS011;11272;50.104;8.754;2023-02-04T04:07:31;15.03;;;2.47;;
22205;SDS011;11272;50.104;8.754;2023-02-04T04:09:56;10.07;;;2.73;;
22205;SDS011;11272;50.104;8.754;2023-02-04T04:12:22;9.83;;;2.40;;
22205;SDS011;11272;50.104;8.754;2023-02-04T04:14:47;10.50;;;2.17;;
22205;SDS011;11272;50.104;8.754;2023-02-04T04:17:13;12.73;;;2.63;;
22205;SDS011;11272;50.104;8.754;2023-02-04T04:19:38;12.50;;;2.97;;
22205;SDS011;11272;50.104;8.754;2023-02-04T04:22:04;21.97;;;2.50;;
22205;SDS011;11272;50.104;8.754;2023-02-04T04:24:29;17.13;;;2.67;;
22205;SDS011;11272;50.104;8.754;2023-02-04T04:26:55;15.00;;;2.90;;
22205;SDS011;11272;50.104;8.754;2023-02-04T04:29:20;16.67;;;2.70;;
22205;SDS011;11272;50.104;8.754;2023-02-04T04:31:46;16.07;;;3.17;;
22205;SDS011;11272;50.104;8.754;2023-02-04T04:34:11;12.80;;;2.27;;
22205;SDS011;11272;50.104;8.754;2023-02-04T04:36:37;13.90;;;2.57;;
22205;SDS011;11272;50.104;8.754;2023-02-04T04:39:03;17.67;;;2.90;;
22205;SDS011;11272;50.104;8.754;2023-02-04T04:41:29;17.90;;;2.50;;
22205;SDS011;11272;50.104;8.754;2023-02-04T04:43:54;18.47;;;2.57;;
22205;SDS011;11272;50.104;8.754;2023-02-04T04:46:19;12.47;;;2.40;;
22205;SDS011;11272;50.104;8.754;2023-02-04T04:48:45;19.87;;;2.50;;
22205;SDS011;11272;50.104;8.754;2023-02-04T04:51:11;14.20;;;2.17;;
22205;SDS011;11272;50.104;8.754;2023-02-04T04:53:36;18.90;;;3.00;;
22205;SDS011;11272;50.104;8.754;2023-02-04T04:56:02;13.90;;;2.63;;
22205;SDS011;11272;50.104;8.754;2023-02-04T04:58:27;12.63;;;2.67;;
22205;SDS011;11272;50.104;8.754;2023-02-04T05:00:52;18.53;;;2.83;;
22205;SDS011;11272;50.104;8.754;2023-02-04T05:03:18;12.40;;;2.40;;
22205;SDS011;11272;50.104;8.754;2023-02-04T05:05:44;10.20;;;2.50;;
22205;SDS011;11272;50.104;8.754;2023-02-04T05:08:09;10.63;;;2.57;;
22205;SDS011;11272;50.104;8.754;2023-02-04T05:10:38;16.43;;;2.63;;
22205;SDS011;11272;50.104;8.754;2023-02-04T05:13:04;13.00;;;2.50;;
22205;SDS011;11272;50.104;8.754;2023-02-04T05:15:30;12.97;;;3.10;;
22205;SDS011;11272;50.104;8.754;2023-02-04T05:17:55;14.87;;;2.60;;
22205;SDS011;11272;50.104;8.754;2023-02-04T05:20:23;10.23;;;2.50;;
22205;SDS011;11272;50.104;8.754;2023-02-04T05:22:49;14.77;;;2.63;;
22205;SDS011;11272;50.104;8.754;2023-02-04T05:25:14;15.87;;;2.63;;
22205;SDS011;11272;50.104;8.754;2023-02-04T05:27:41;17.67;;;2.83;;
22205;SDS011;11272;50.104;8.754;2023-02-04T05:30:10;17.43;;;3.40;;
22205;SDS011;11272;50.104;8.754;2023-02-04T05:32:37;10.77;;;2.60;;
22205;SDS011;11272;50.104;8.754;2023-02-04T05:35:03;18.10;;;3.10;;
22205;SDS011;11272;50.104;8.754;2023-02-04T05:37:29;18.70;;;2.80;;
22205;SDS011;11272;50.104;8.754;2023-02-04T05:39:54;12.73;;;2.90;;
22205;SDS011;11272;50.104;8.754;2023-02-04T05:42:20;16.13;;;3.00;;
22205;SDS011;11272;50.104;8.754;2023-02-04T05:44:45;12.13;;;3.40;;
22205;SDS011;11272;50.104;8.754;2023-02-04T05:47:11;20.63;;;3.13;;
22205;SDS011;11272;50.104;8.754;2023-02-04T05:49:36;19.50;;;2.97;;
22205;SDS011;11272;50.104;8.754;2023-02-04T05:52:02;13.27;;;2.70;;
22205;SDS011;11272;50.104;8.754;2023-02-04T05:54:28;17.93;;;3.40;;
22205;SDS011;11272;50.104;8.754;2023-02-04T05:56:53;21.37;;;3.20;;
22205;SDS011;11272;50.104;8.754;2023-02-04T05:59:19;20.27;;;3.07;;
22205;SDS011;11272;50.104;8.754;2023-02-04T06:01:44;16.67;;;3.10;;
22205;SDS011;11272;50.104;8.754;2023-02-04T06:04:10;15.33;;;3.10;;
22205;SDS011;11272;50.104;8.754;2023-02-04T06:06:35;20.77;;;3.27;;
22205;SDS011;11272;50.104;8.754;2023-02-04T06:09:01;18.50;;;2.90;;
22205;SDS011;11272;50.104;8.754;2023-02-04T06:11:27;15.20;;;2.70;;
22205;SDS011;11272;50.104;8.754;2023-02-04T06:13:52;18.37;;;3.23;;
22205;SDS011;11272;50.104;8.754;2023-02-04T06:16:18;17.67;;;2.77;;
22205;SDS011;11272;50.104;8.754;2023-02-04T06:18:44;21.07;;;2.90;;
22205;SDS011;11272;50.104;8.754;2023-02-04T06:21:09;16.70;;;3.50;;
22205;SDS011;11272;50.104;8.754;2023-02-04T06:23:34;15.50;;;2.77;;
22205;SDS011;11272;50.104;8.754;2023-02-04T06:26:00;20.47;;;3.30;;
22205;SDS011;11272;50.104;8.754;2023-02-04T06:28:26;20.60;;;3.47;;
22205;SDS011;11272;50.104;8.754;2023-02-04T06:30:52;13.13;;;3.27;;
22205;SDS011;11272;50.104;8.754;2023-02-04T06:33:18;15.03;;;3.40;;
22205;SDS011;11272;50.104;8.754;2023-02-04T06:35:45;16.87;;;3.37;;
22205;SDS011;11272;50.104;8.754;2023-02-04T06:38:11;29.50;;;10.73;;
22205;SDS011;11272;50.104;8.754;2023-02-04T06:40:36;24.97;;;3.17;;
22205;SDS011;11272;50.104;8.754;2023-02-04T06:43:02;20.87;;;3.43;;
22205;SDS011;11272;50.104;8.754;2023-02-04T06:45:28;17.40;;;3.47;;
22205;SDS011;11272;50.104;8.754;2023-02-04T06:47:53;24.43;;;3.17;;
22205;SDS011;11272;50.104;8.754;2023-02-04T06:50:19;16.53;;;3.53;;
22205;SDS011;11272;50.104;8.754;2023-02-04T06:52:46;22.10;;;3.93;;
22205;SDS011;11272;50.104;8.754;2023-02-04T06:55:13;20.03;;;2.93;;
22205;SDS011;11272;50.104;8.754;2023-02-04T06:57:38;13.87;;;2.70;;
22205;SDS011;11272;50.104;8.754;2023-02-04T07:00:05;16.93;;;3.20;;
22205;SDS011;11272;50.104;8.754;2023-02-04T07:02:31;21.30;;;3.27;;
22205;SDS011;11272;50.104;8.754;2023-02-04T07:04:56;18.10;;;2.93;;
22205;SDS011;11272;50.104;8.754;2023-02-04T07:07:24;17.60;;;3.30;;
22205;SDS011;11272;50.104;8.754;2023-02-04T07:09:50;26.80;;;3.47;;
22205;SDS011;11272;50.104;8.754;2023-02-04T07:12:16;15.77;;;3.83;;
22205;SDS011;11272;50.104;8.754;2023-02-04T07:14:41;17.60;;;3.20;;
22205;SDS011;11272;50.104;8.754;2023-02-04T07:17:07;18.17;;;3.47;;
22205;SDS011;11272;50.104;8.754;2023-02-04T07:19:32;16.83;;;2.70;;
22205;SDS011;11272;50.104;8.754;2023-02-04T07:21:59;17.40;;;2.93;;
22205;SDS011;11272;50.104;8.754;2023-02-04T07:24:26;13.73;;;2.70;;
22205;SDS011;11272;50.104;8.754;2023-02-04T07:26:51;14.83;;;2.67;;
22205;SDS011;11272;50.104;8.754;2023-02-04T07:29:17;18.13;;;2.90;;
22205;SDS011;11272;50.104;8.754;2023-02-04T07:31:46;20.17;;;3.63;;
22205;SDS011;11272;50.104;8.754;2023-02-04T07:34:14;12.20;;;2.50;;
22205;SDS011;11272;50.104;8.754;2023-02-04T07:36:40;19.57;;;3.27;;
22205;SDS011;11272;50.104;8.754;2023-02-04T07:39:06;19.67;;;3.93;;
22205;SDS011;11272;50.104;8.754;2023-02-04T07:41:32;23.20;;;3.37;;
22205;SDS011;11272;50.104;8.754;2023-02-04T07:43:58;15.33;;;3.00;;
22205;SDS011;11272;50.104;8.754;2023-02-04T07:46:23;19.30;;;3.23;;
22205;SDS011;11272;50.104;8.754;2023-02-04T07:48:49;15.03;;;3.10;;
22205;SDS011;11272;50.104;8.754;2023-02-04T07:51:14;15.40;;;3.00;;
22205;SDS011;11272;50.104;8.754;2023-02-04T07:53:40;23.53;;;3.97;;
22205;SDS011;11272;50.104;8.754;2023-02-04T07:56:07;24.63;;;4.13;;
22205;SDS011;11272;50.104;8.754;2023-02-04T07:58:32;17.47;;;4.03;;
22205;SDS011;11272;50.104;8.754;2023-02-04T08:00:58;24.23;;;4.23;;
22205;SDS011;11272;50.104;8.754;2023-02-04T08:03:23;19.17;;;3.37;;
22205;SDS011;11272;50.104;8.754;2023-02-04T08:05:49;19.93;;;3.50;;
22205;SDS011;11272;50.104;8.754;2023-02-04T08:08:14;16.73;;;3.30;;
22205;SDS011;11272;50.104;8.754;2023-02-04T08:10:41;24.40;;;3.83;;
22205;SDS011;11272;50.104;8.754;2023-02-04T08:13:06;19.33;;;3.77;;
22205;SDS011;11272;50.104;8.754;2023-02-04T08:15:32;19.43;;;3.60;;
22205;SDS011;11272;50.104;8.754;2023-02-04T08:17:57;20.80;;;3.33;;
22205;SDS011;11272;50.104;8.754;2023-02-04T08:20:23;19.90;;;4.00;;
22205;SDS011;11272;50.104;8.754;2023-02-04T08:22:48;17.37;;;3.03;;
22205;SDS011;11272;50.104;8.754;2023-02-04T08:25:14;16.97;;;3.63;;
22205;SDS011;11272;50.104;8.754;2023-02-04T08:27:40;19.17;;;3.27;;
22205;SDS011;11272;50.104;8.754;2023-02-04T08:30:07;16.90;;;3.30;;
22205;SDS011;11272;50.104;8.754;2023-02-04T08:32:33;22.07;;;4.03;;
22205;SDS011;11272;50.104;8.754;2023-02-04T08:34:59;18.93;;;3.33;;
22205;SDS011;11272;50.104;8.754;2023-02-04T08:37:25;16.93;;;3.30;;
22205;SDS011;11272;50.104;8.754;2023-02-04T08:39:50;16.83;;;3.40;;
22205;SDS011;11272;50.104;8.754;2023-02-04T08:42:16;19.20;;;3.77;;
22205;SDS011;11272;50.104;8.754;2023-02-04T08:44:42;16.43;;;3.13;;
22205;SDS011;11272;50.104;8.754;2023-02-04T08:47:07;23.17;;;4.50;;
22205;SDS011;11272;50.104;8.754;2023-02-04T08:49:34;18.97;;;3.17;;
22205;SDS011;11272;50.104;8.754;2023-02-04T08:52:00;17.03;;;2.77;;
22205;SDS011;11272;50.104;8.754;2023-02-04T08:54:27;20.70;;;3.40;;
22205;SDS011;11272;50.104;8.754;2023-02-04T08:56:53;14.47;;;3.20;;
22205;SDS011;11272;50.104;8.754;2023-02-04T08:59:18;12.70;;;2.67;;
22205;SDS011;11272;50.104;8.754;2023-02-04T09:01:46;19.73;;;3.40;;
22205;SDS011;11272;50.104;8.754;2023-02-04T09:04:13;19.00;;;3.60;;
22205;SDS011;11272;50.104;8.754;2023-02-04T09:06:39;17.27;;;3.20;;
22205;SDS011;11272;50.104;8.754;2023-02-04T09:09:05;13.83;;;2.80;;
22205;SDS011;11272;50.104;8.754;2023-02-04T09:11:31;15.73;;;3.30;;
22205;SDS011;11272;50.104;8.754;2023-02-04T09:13:56;9.73;;;2.40;;
22205;SDS011;11272;50.104;8.754;2023-02-04T09:16:22;20.37;;;3.57;;
22205;SDS011;11272;50.104;8.754;2023-02-04T09:18:47;16.80;;;2.80;;
22205;SDS011;11272;50.104;8.754;2023-02-04T09:21:13;15.37;;;3.33;;
22205;SDS011;11272;50.104;8.754;2023-02-04T09:23:39;16.40;;;2.60;;
22205;SDS011;11272;50.104;8.754;2023-02-04T09:26:04;15.17;;;2.60;;
22205;SDS011;11272;50.104;8.754;2023-02-04T09:28:31;14.87;;;2.77;;
22205;SDS011;11272;50.104;8.754;2023-02-04T09:30:56;10.37;;;2.50;;
22205;SDS011;11272;50.104;8.754;2023-02-04T09:33:22;15.77;;;2.60;;
22205;SDS011;11272;50.104;8.754;2023-02-04T09:35:48;11.67;;;3.17;;
22205;SDS011;11272;50.104;8.754;2023-02-04T09:38:14;16.03;;;3.00;;
22205;SDS011;11272;50.104;8.754;2023-02-04T09:40:41;18.13;;;3.60;;
22205;SDS011;11272;50.104;8.754;2023-02-04T09:43:10;16.70;;;3.37;;
22205;SDS011;11272;50.104;8.754;2023-02-04T09:45:41;20.63;;;3.70;;
22205;SDS011;11272;50.104;8.754;2023-02-04T09:48:08;13.70;;;3.03;;
22205;SDS011;11272;50.104;8.754;2023-02-04T09:50:37;16.20;;;2.90;;
22205;SDS011;11272;50.104;8.754;2023-02-04T09:53:03;17.07;;;3.10;;
22205;SDS011;11272;50.104;8.754;2023-02-04T09:55:32;20.13;;;3.50;;
22205;SDS011;11272;50.104;8.754;2023-02-04T09:58:07;11.70;;;2.63;;
22205;SDS011;11272;50.104;8.754;2023-02-04T10:00:38;17.27;;;3.27;;
22205;SDS011;11272;50.104;8.754;2023-02-04T10:03:08;16.10;;;2.60;;
22205;SDS011;11272;50.104;8.754;2023-02-04T10:05:39;18.13;;;2.63;;
22205;SDS011;11272;50.104;8.754;2023-02-04T10:08:04;19.07;;;3.30;;
22205;SDS011;11272;50.104;8.754;2023-02-04T10:10:30;18.67;;;3.13;;
22205;SDS011;11272;50.104;8.754;2023-02-04T10:12:56;16.63;;;2.60;;
22205;SDS011;11272;50.104;8.754;2023-02-04T10:15:25;17.67;;;3.13;;
22205;SDS011;11272;50.104;8.754;2023-02-04T10:18:00;18.60;;;2.80;;
22205;SDS011;11272;50.104;8.754;2023-02-04T10:20:29;15.23;;;2.90;;
22205;SDS011;11272;50.104;8.754;2023-02-04T10:22:55;12.03;;;2.60;;
22205;SDS011;11272;50.104;8.754;2023-02-04T10:25:22;15.27;;;2.80;;
22205;SDS011;11272;50.104;8.754;2023-02-04T10:27:57;19.67;;;3.17;;
22205;SDS011;11272;50.104;8.754;2023-02-04T10:30:27;11.13;;;2.40;;
22205;SDS011;11272;50.104;8.754;2023-02-04T10:32:59;11.23;;;2.57;;
22205;SDS011;11272;50.104;8.754;2023-02-04T10:35:43;14.17;;;2.60;;
22205;SDS011;11272;50.104;8.754;2023-02-04T10:38:11;17.03;;;3.50;;
22205;SDS011;11272;50.104;8.754;2023-02-04T10:40:36;18.20;;;2.83;;
22205;SDS011;11272;50.104;8.754;2023-02-04T10:43:08;10.57;;;2.63;;
22205;SDS011;11272;50.104;8.754;2023-02-04T10:46:00;12.47;;;2.70;;
22205;SDS011;11272;50.104;8.754;2023-02-04T10:48:27;11.17;;;2.60;;
22205;SDS011;11272;50.104;8.754;2023-02-04T10:50:54;11.17;;;2.27;;
22205;SDS011;11272;50.104;8.754;2023-02-04T10:53:21;15.90;;;2.90;;
22205;SDS011;11272;50.104;8.754;2023-02-04T10:56:18;13.20;;;2.17;;
22205;SDS011;11272;50.104;8.754;2023-02-04T10:58:45;8.37;;;1.87;;
22205;SDS011;11272;50.104;8.754;2023-02-04T11:01:14;15.83;;;2.40;;
22205;SDS011;11272;50.104;8.754;2023-02-04T11:03:41;12.17;;;2.50;;
22205;SDS011;11272;50.104;8.754;2023-02-04T11:06:11;11.00;;;2.47;;
22205;SDS011;11272;50.104;8.754;2023-02-04T11:08:41;8.57;;;2.27;;
22205;SDS011;11272;50.104;8.754;2023-02-04T11:11:17;12.27;;;2.40;;
22205;SDS011;11272;50.104;8.754;2023-02-04T11:13:56;9.50;;;2.20;;
22205;SDS011;11272;50.104;8.754;2023-02-04T11:16:29;7.50;;;2.10;;
22205;SDS011;11272;50.104;8.754;2023-02-04T11:19:03;12.37;;;2.10;;
22205;SDS011;11272;50.104;8.754;2023-02-04T11:24:19;11.53;;;2.33;;
22205;SDS011;11272;50.104;8.754;2023-02-04T11:26:49;11.90;;;2.20;;
22205;SDS011;11272;50.104;8.754;2023-02-04T11:29:32;10.27;;;2.13;;
22205;SDS011;11272;50.104;8.754;2023-02-04T11:32:06;13.20;;;2.40;;
22205;SDS011;11272;50.104;8.754;2023-02-04T11:34:52;9.80;;;2.67;;
22205;SDS011;11272;50.104;8.754;2023-02-04T11:42:47;9.27;;;2.00;;
22205;SDS011;11272;50.104;8.754;2023-02-04T11:45:14;8.87;;;2.03;;
22205;SDS011;11272;50.104;8.754;2023-02-04T11:47:44;7.27;;;2.37;;
22205;SDS011;11272;50.104;8.754;2023-02-04T11:50:14;6.63;;;1.73;;
22205;SDS011;11272;50.104;8.754;2023-02-04T11:52:44;7.43;;;2.10;;
22205;SDS011;11272;50.104;8.754;2023-02-04T11:55:09;10.63;;;2.00;;
22205;SDS011;11272;50.104;8.754;2023-02-04T11:57:42;8.80;;;2.10;;
22205;SDS011;11272;50.104;8.754;2023-02-04T12:00:12;7.80;;;1.77;;
22205;SDS011;11272;50.104;8.754;2023-02-04T12:02:40;10.43;;;2.20;;
22205;SDS011;11272;50.104;8.754;2023-02-04T12:05:10;12.37;;;2.33;;
22205;SDS011;11272;50.104;8.754;2023-02-04T12:07:37;8.20;;;1.63;;
22205;SDS011;11272;50.104;8.754;2023-02-04T12:10:10;10.33;;;1.70;;
22205;SDS011;11272;50.104;8.754;2023-02-04T12:12:55;11.57;;;1.87;;
22205;SDS011;11272;50.104;8.754;2023-02-04T12:15:29;6.87;;;1.80;;
22205;SDS011;11272;50.104;8.754;2023-02-04T12:18:05;6.07;;;1.60;;
22205;SDS011;11272;50.104;8.754;2023-02-04T12:20:34;6.43;;;1.70;;
22205;SDS011;11272;50.104;8.754;2023-02-04T12:23:01;7.60;;;1.80;;
22205;SDS011;11272;50.104;8.754;2023-02-04T12:25:27;9.40;;;1.87;;
22205;SDS011;11272;50.104;8.754;2023-02-04T12:27:53;8.60;;;2.10;;
22205;SDS011;11272;50.104;8.754;2023-02-04T12:30:22;10.97;;;1.90;;
22205;SDS011;11272;50.104;8.754;2023-02-04T12:32:49;9.27;;;1.70;;
22205;SDS011;11272;50.104;8.754;2023-02-04T12:35:15;9.83;;;2.27;;
22205;SDS011;11272;50.104;8.754;2023-02-04T12:37:42;7.47;;;1.93;;
22205;SDS011;11272;50.104;8.754;2023-02-04T12:40:09;7.87;;;1.47;;
22205;SDS011;11272;50.104;8.754;2023-02-04T12:42:42;9.40;;;1.97;;
22205;SDS011;11272;50.104;8.754;2023-02-04T12:45:08;9.17;;;2.03;;
22205;SDS011;11272;50.104;8.754;2023-02-04T12:47:36;8.80;;;1.60;;
22205;SDS011;11272;50.104;8.754;2023-02-04T12:50:02;12.00;;;2.63;;
22205;SDS011;11272;50.104;8.754;2023-02-04T12:52:28;4.97;;;1.37;;
22205;SDS011;11272;50.104;8.754;2023-02-04T12:54:53;11.03;;;1.90;;
22205;SDS011;11272;50.104;8.754;2023-02-04T12:57:19;8.50;;;1.80;;
22205;SDS011;11272;50.104;8.754;2023-02-04T12:59:45;12.13;;;1.80;;
22205;SDS011;11272;50.104;8.754;2023-02-04T13:02:11;8.07;;;2.20;;
22205;SDS011;11272;50.104;8.754;2023-02-04T13:04:37;9.40;;;2.10;;
22205;SDS011;11272;50.104;8.754;2023-02-04T13:07:03;8.90;;;2.20;;
22205;SDS011;11272;50.104;8.754;2023-02-04T13:09:31;12.13;;;2.47;;
22205;SDS011;11272;50.104;8.754;2023-02-04T13:11:57;13.60;;;2.07;;
22205;SDS011;11272;50.104;8.754;2023-02-04T13:14:22;12.00;;;2.30;;
22205;SDS011;11272;50.104;8.754;2023-02-04T13:16:48;11.23;;;2.07;;
22205;SDS011;11272;50.104;8.754;2023-02-04T13:19:13;14.83;;;2.47;;
22205;SDS011;11272;50.104;8.754;2023-02-04T13:21:39;10.93;;;2.30;;
22205;SDS011;11272;50.104;8.754;2023-02-04T13:24:04;7.97;;;1.90;;
22205;SDS011;11272;50.104;8.754;2023-02-04T13:26:30;11.50;;;2.30;;
22205;SDS011;11272;50.104;8.754;2023-02-04T13:28:55;7.77;;;2.40;;
22205;SDS011;11272;50.104;8.754;2023-02-04T13:31:21;8.50;;;2.17;;
22205;SDS011;11272;50.104;8.754;2023-02-04T13:33:46;6.23;;;1.83;;
22205;SDS011;11272;50.104;8.754;2023-02-04T13:36:12;10.90;;;2.37;;
22205;SDS011;11272;50.104;8.754;2023-02-04T13:38:38;7.63;;;1.90;;
22205;SDS011;11272;50.104;8.754;2023-02-04T13:41:03;11.83;;;2.20;;
22205;SDS011;11272;50.104;8.754;2023-02-04T13:43:29;9.73;;;2.63;;
22205;SDS011;11272;50.104;8.754;2023-02-04T13:45:54;12.90;;;2.70;;
22205;SDS011;11272;50.104;8.754;2023-02-04T13:48:22;11.90;;;2.23;;
22205;SDS011;11272;50.104;8.754;2023-02-04T13:50:47;10.80;;;1.67;;
22205;SDS011;11272;50.104;8.754;2023-02-04T13:53:15;10.07;;;1.80;;
22205;SDS011;11272;50.104;8.754;2023-02-04T13:55:41;8.23;;;2.30;;
22205;SDS011;11272;50.104;8.754;2023-02-04T13:58:07;9.20;;;2.77;;
22205;SDS011;11272;50.104;8.754;2023-02-04T14:00:32;8.13;;;1.97;;
22205;SDS011;11272;50.104;8.754;2023-02-04T14:02:58;7.50;;;1.73;;
22205;SDS011;11272;50.104;8.754;2023-02-04T14:05:23;7.97;;;2.07;;
22205;SDS011;11272;50.104;8.754;2023-02-04T14:07:49;9.63;;;2.07;;
22205;SDS011;11272;50.104;8.754;2023-02-04T14:10:18;11.27;;;2.47;;
22205;SDS011;11272;50.104;8.754;2023-02-04T14:12:43;7.03;;;1.70;;
22205;SDS011;11272;50.104;8.754;2023-02-04T14:15:09;9.13;;;1.80;;
22205;SDS011;11272;50.104;8.754;2023-02-04T14:17:35;10.63;;;2.70;;
22205;SDS011;11272;50.104;8.754;2023-02-04T14:20:01;12.83;;;2.00;;
22205;SDS011;11272;50.104;8.754;2023-02-04T14:22:29;12.10;;;1.73;;
22205;SDS011;11272;50.104;8.754;2023-02-04T14:24:55;12.33;;;2.07;;
22205;SDS011;11272;50.104;8.754;2023-02-04T14:27:21;10.53;;;2.30;;
22205;SDS011;11272;50.104;8.754;2023-02-04T14:29:46;6.77;;;1.90;;
22205;SDS011;11272;50.104;8.754;2023-02-04T14:32:12;5.80;;;1.70;;
22205;SDS011;11272;50.104;8.754;2023-02-04T14:34:37;12.03;;;2.30;;
22205;SDS011;11272;50.104;8.754;2023-02-04T14:37:03;10.80;;;1.43;;
22205;SDS011;11272;50.104;8.754;2023-02-04T14:39:28;7.67;;;1.90;;
22205;SDS011;11272;50.104;8.754;2023-02-04T14:41:54;10.50;;;1.90;;
22205;SDS011;11272;50.104;8.754;2023-02-04T14:44:19;12.63;;;2.57;;
22205;SDS011;11272;50.104;8.754;2023-02-04T14:46:45;16.43;;;3.20;;